Five Waves — J8Y4328 — position and weather

sailwx.info

Track history (hours):
 
Tides and Currents Weather Stations Pressure Air Temp Water Temp Dewpoint Dewpoint Depression Visibility Wind Speed Wind Dir Waves Ship Positions

Five Waves

Last reported at 2017-Jan-01 19:29 UTC. Time now 2017-Jan-19 06:37 UTC.
Position N 25°46' W 080°10'.
Warning: this ship's position is 17 days out of date.

Length 35 m; draft 1.1 m.

Type: Pleasure craft. MMSI: 377494000.

Date/timePositionNaut miles runAvg speedWind from/ knotsBaromVisibWave heightAir tempDewpointWater temp
2017-Jan-01 19:29N 25°46' W 080°10'2 2.0
2017-Jan-01 18:33N 25°46' W 080°08'0 0.0
2017-Jan-01 17:33N 25°46' W 080°08'0 0.0
2017-Jan-01 16:33N 25°46' W 080°08'0 0.0
2017-Jan-01 15:33N 25°46' W 080°08'0 0.0
2017-Jan-01 14:33N 25°46' W 080°08'0 0.0
2017-Jan-01 13:33N 25°46' W 080°08'0 0.0
2017-Jan-01 12:33N 25°46' W 080°08'0 0.0
2017-Jan-01 11:33N 25°46' W 080°08'0 0.0
2017-Jan-01 10:33N 25°46' W 080°08'0 0.0
2017-Jan-01 09:33N 25°46' W 080°08'1 1.0
2017-Jan-01 08:15N 25°47' W 080°09'1 1.4
2017-Jan-01 07:33N 25°46' W 080°09'0 0.4
2017-Jan-01 06:33N 25°46' W 080°08'2 0.8
2017-Jan-01 04:22N 25°46' W 080°10'2 2.0
2017-Jan-01 03:34N 25°46' W 080°08'0 0.0
2017-Jan-01 02:33N 25°46' W 080°08'0 0.0
2017-Jan-01 01:33N 25°46' W 080°08'0 0.0
2017-Jan-01 00:33N 25°46' W 080°08'0 0.0
2016-Dec-31 23:33N 25°46' W 080°08'0 0.0
2016-Dec-31 22:33N 25°46' W 080°08'0 0.0
2016-Dec-31 21:33N 25°46' W 080°08'0 0.0
2016-Dec-31 20:33N 25°46' W 080°08'0 0.0
2016-Dec-31 19:33N 25°46' W 080°08'0 0.0
2016-Dec-31 18:30N 25°46' W 080°08'0 0.0
2016-Dec-31 17:30N 25°46' W 080°08'0 0.0
2016-Dec-31 16:33N 25°46' W 080°08'0 0.0
2016-Dec-31 15:33N 25°46' W 080°08'0 0.0
2016-Dec-31 14:33N 25°46' W 080°08'0 0.0
2016-Dec-31 13:33N 25°46' W 080°08'0 0.0
2016-Dec-31 12:27N 25°46' W 080°08'0 0.0
2016-Dec-31 11:33N 25°46' W 080°08'0 0.0
2016-Dec-31 10:33N 25°46' W 080°08'0 0.0
2016-Dec-31 09:33N 25°46' W 080°08'0 0.0
2016-Dec-31 08:33N 25°46' W 080°08'0 0.0
2016-Dec-31 07:33N 25°46' W 080°08'0 0.0
2016-Dec-31 06:33N 25°46' W 080°08'0 0.0
2016-Dec-31 05:33N 25°46' W 080°08'0 0.0
2016-Dec-31 04:33N 25°46' W 080°08'0 0.0
2016-Dec-31 03:33N 25°46' W 080°08'0 0.0
2016-Dec-31 02:33N 25°46' W 080°08'0 0.0
2016-Dec-31 01:33N 25°46' W 080°08'0 0.0
2016-Dec-31 00:33N 25°46' W 080°08'0 0.0
2016-Dec-30 23:33N 25°46' W 080°08'3 0.7
2016-Dec-30 20:05N 25°46' W 080°11'3 4.8
2016-Dec-30 19:32N 25°46' W 080°08'0 0.0
2016-Dec-30 18:32N 25°46' W 080°08'0 0.0
2016-Dec-30 17:32N 25°46' W 080°08'0 0.0
2016-Dec-30 16:32N 25°46' W 080°08'0 0.0
2016-Dec-30 15:32N 25°46' W 080°08'0 0.0
2016-Dec-30 14:32N 25°46' W 080°08'0 0.0
2016-Dec-30 13:32N 25°46' W 080°08'0 0.0
2016-Dec-30 12:32N 25°46' W 080°08'0 0.0
2016-Dec-30 11:32N 25°46' W 080°08'0 0.0
2016-Dec-30 10:32N 25°46' W 080°08'0 0.0
2016-Dec-30 09:32N 25°46' W 080°08'0 0.0
2016-Dec-30 08:32N 25°46' W 080°08'0 0.0
2016-Dec-30 07:32N 25°46' W 080°08'0 0.0
2016-Dec-30 06:32N 25°46' W 080°08'0 0.0
2016-Dec-30 05:32N 25°46' W 080°08'0 0.0
2016-Dec-30 04:32N 25°46' W 080°08'0 0.0
2016-Dec-30 03:32N 25°46' W 080°08'0 0.0
2016-Dec-30 02:32N 25°46' W 080°08'0 0.0
2016-Dec-30 01:32N 25°46' W 080°08'0 0.0
2016-Dec-30 00:32N 25°46' W 080°08'0 0.0
2016-Dec-29 23:32N 25°46' W 080°08'0 0.0
2016-Dec-29 22:32N 25°46' W 080°08'0 0.0
2016-Dec-29 21:32N 25°46' W 080°08'1 0.2
2016-Dec-29 17:33N 25°46' W 080°08'1 0.6
2016-Dec-29 16:29N 25°46' W 080°08'0 0.0
2016-Dec-29 15:29N 25°46' W 080°08'0 0.0
2016-Dec-29 14:32N 25°46' W 080°08'0 0.0
2016-Dec-29 13:32N 25°46' W 080°08'0 0.0
2016-Dec-29 12:32N 25°46' W 080°08'0 0.0
2016-Dec-29 11:29N 25°46' W 080°08'0 0.0
2016-Dec-29 10:29N 25°46' W 080°08'0 0.0
2016-Dec-29 09:32N 25°46' W 080°08'0 0.0
2016-Dec-29 08:29N 25°46' W 080°08'0 0.0
2016-Dec-29 07:32N 25°46' W 080°08'0 0.0
2016-Dec-29 06:32N 25°46' W 080°08'0 0.0
2016-Dec-29 05:32N 25°46' W 080°08'0 0.0
2016-Dec-29 04:32N 25°46' W 080°08'0 0.0
2016-Dec-29 03:32N 25°46' W 080°08'0 0.0
2016-Dec-29 02:32N 25°46' W 080°08'0 0.0
2016-Dec-29 01:32N 25°46' W 080°08'0 0.0
2016-Dec-29 00:29N 25°46' W 080°08'0 0.0
2016-Dec-28 23:32N 25°46' W 080°08'0 0.0
2016-Dec-28 22:32N 25°46' W 080°08'0 0.0
2016-Dec-28 21:32N 25°46' W 080°08'2 0.6
2016-Dec-28 17:25N 25°46' W 080°11'2 2.6
2016-Dec-28 16:31N 25°46' W 080°08'0 0.0
2016-Dec-28 15:31N 25°46' W 080°08'0 0.0
2016-Dec-28 14:31N 25°46' W 080°08'0 0.0
2016-Dec-28 13:31N 25°46' W 080°08'0 0.0
2016-Dec-28 12:31N 25°46' W 080°08'0 0.0
2016-Dec-28 11:31N 25°46' W 080°08'0 0.0
2016-Dec-28 10:31N 25°46' W 080°08'0 0.0
2016-Dec-28 09:31N 25°46' W 080°08'0 0.0
2016-Dec-28 08:31N 25°46' W 080°08'0 0.0
2016-Dec-28 07:31N 25°46' W 080°08'0 0.0
2016-Dec-28 06:31N 25°46' W 080°08'0 0.0
2016-Dec-28 05:31N 25°46' W 080°08'0 0.0
2016-Dec-28 04:31N 25°46' W 080°08'0 0.0
2016-Dec-28 03:31N 25°46' W 080°08'0 0.0
2016-Dec-28 02:31N 25°46' W 080°08'0 0.0
2016-Dec-28 01:31N 25°46' W 080°08'0 0.0
2016-Dec-28 00:31N 25°46' W 080°08'0 0.0
2016-Dec-27 23:31N 25°46' W 080°08'0 0.0
2016-Dec-27 22:31N 25°46' W 080°08'0 0.0
2016-Dec-27 21:31N 25°46' W 080°08'0 0.0
2016-Dec-27 20:31N 25°46' W 080°08'0 0.0
2016-Dec-27 19:31N 25°46' W 080°08'0 0.0
2016-Dec-27 18:31N 25°46' W 080°08'0 0.0
2016-Dec-27 17:31N 25°46' W 080°08'0 0.0
2016-Dec-27 16:31N 25°46' W 080°08'0 0.0
2016-Dec-27 15:31N 25°46' W 080°08'0 0.0
2016-Dec-27 14:31N 25°46' W 080°08'0 0.0
2016-Dec-27 13:28N 25°46' W 080°08'0 0.0
2016-Dec-27 12:31N 25°46' W 080°08'0 0.0
2016-Dec-27 11:31N 25°46' W 080°08'0 0.0
2016-Dec-27 10:31N 25°46' W 080°08'0 0.0
2016-Dec-27 09:31N 25°46' W 080°08'0 0.0
2016-Dec-27 08:31N 25°46' W 080°08'0 0.0
2016-Dec-27 07:31N 25°46' W 080°08'0 0.0
2016-Dec-27 06:31N 25°46' W 080°08'0 0.0
2016-Dec-27 05:31N 25°46' W 080°08'0 0.0
2016-Dec-27 04:31N 25°46' W 080°08'0 0.0
2016-Dec-27 03:31N 25°46' W 080°08'0 0.0
2016-Dec-27 02:31N 25°46' W 080°08'0 0.0
2016-Dec-27 01:28N 25°46' W 080°08'0 0.0
2016-Dec-27 00:31N 25°46' W 080°08'0 0.0
2016-Dec-26 23:31N 25°46' W 080°08'0 0.0
2016-Dec-26 22:25N 25°46' W 080°08'0 0.0
2016-Dec-26 21:31N 25°46' W 080°08'0 0.0
2016-Dec-26 20:31N 25°46' W 080°08'0 0.0
2016-Dec-26 19:31N 25°46' W 080°08'0 0.0
2016-Dec-26 18:31N 25°46' W 080°08'0 0.0
2016-Dec-26 17:31N 25°46' W 080°08'0 0.0
2016-Dec-26 16:31N 25°46' W 080°08'0 0.0
2016-Dec-26 15:29N 25°46' W 080°08'0 0.0
2016-Dec-26 14:32N 25°46' W 080°08'  
Track history (hours):
 
Tides and Currents Weather Stations Pressure Air Temp Water Temp Dewpoint Dewpoint Depression Visibility Wind Speed Wind Dir Waves Ship Positions

Five Waves

Last reported at 2017-Jan-01 19:29 UTC. Time now 2017-Jan-19 06:37 UTC.
Position N 25°46' W 080°10'.
Warning: this ship's position is 17 days out of date.

Length 35 m; draft 1.1 m.

Type: Pleasure craft. MMSI: 377494000.

Date/timePositionNaut miles runAvg speedWind from/ knotsBaromVisibWave heightAir tempDewpointWater temp
2017-Jan-01 19:29N 25°46' W 080°10'2 2.0
2017-Jan-01 18:33N 25°46' W 080°08'0 0.0
2017-Jan-01 17:33N 25°46' W 080°08'0 0.0
2017-Jan-01 16:33N 25°46' W 080°08'0 0.0
2017-Jan-01 15:33N 25°46' W 080°08'0 0.0
2017-Jan-01 14:33N 25°46' W 080°08'0 0.0
2017-Jan-01 13:33N 25°46' W 080°08'0 0.0
2017-Jan-01 12:33N 25°46' W 080°08'0 0.0
2017-Jan-01 11:33N 25°46' W 080°08'0 0.0
2017-Jan-01 10:33N 25°46' W 080°08'0 0.0
2017-Jan-01 09:33N 25°46' W 080°08'1 1.0
2017-Jan-01 08:15N 25°47' W 080°09'1 1.4
2017-Jan-01 07:33N 25°46' W 080°09'0 0.4
2017-Jan-01 06:33N 25°46' W 080°08'2 0.8
2017-Jan-01 04:22N 25°46' W 080°10'2 2.0
2017-Jan-01 03:34N 25°46' W 080°08'0 0.0
2017-Jan-01 02:33N 25°46' W 080°08'0 0.0
2017-Jan-01 01:33N 25°46' W 080°08'0 0.0
2017-Jan-01 00:33N 25°46' W 080°08'0 0.0
2016-Dec-31 23:33N 25°46' W 080°08'0 0.0
2016-Dec-31 22:33N 25°46' W 080°08'0 0.0
2016-Dec-31 21:33N 25°46' W 080°08'0 0.0
2016-Dec-31 20:33N 25°46' W 080°08'0 0.0
2016-Dec-31 19:33N 25°46' W 080°08'0 0.0
2016-Dec-31 18:30N 25°46' W 080°08'0 0.0
2016-Dec-31 17:30N 25°46' W 080°08'0 0.0
2016-Dec-31 16:33N 25°46' W 080°08'0 0.0
2016-Dec-31 15:33N 25°46' W 080°08'0 0.0
2016-Dec-31 14:33N 25°46' W 080°08'0 0.0
2016-Dec-31 13:33N 25°46' W 080°08'0 0.0
2016-Dec-31 12:27N 25°46' W 080°08'0 0.0
2016-Dec-31 11:33N 25°46' W 080°08'0 0.0
2016-Dec-31 10:33N 25°46' W 080°08'0 0.0
2016-Dec-31 09:33N 25°46' W 080°08'0 0.0
2016-Dec-31 08:33N 25°46' W 080°08'0 0.0
2016-Dec-31 07:33N 25°46' W 080°08'0 0.0
2016-Dec-31 06:33N 25°46' W 080°08'0 0.0
2016-Dec-31 05:33N 25°46' W 080°08'0 0.0
2016-Dec-31 04:33N 25°46' W 080°08'0 0.0
2016-Dec-31 03:33N 25°46' W 080°08'0 0.0
2016-Dec-31 02:33N 25°46' W 080°08'0 0.0
2016-Dec-31 01:33N 25°46' W 080°08'0 0.0
2016-Dec-31 00:33N 25°46' W 080°08'0 0.0
2016-Dec-30 23:33N 25°46' W 080°08'3 0.7
2016-Dec-30 20:05N 25°46' W 080°11'3 4.8
2016-Dec-30 19:32N 25°46' W 080°08'0 0.0
2016-Dec-30 18:32N 25°46' W 080°08'0 0.0
2016-Dec-30 17:32N 25°46' W 080°08'0 0.0
2016-Dec-30 16:32N 25°46' W 080°08'0 0.0
2016-Dec-30 15:32N 25°46' W 080°08'0 0.0
2016-Dec-30 14:32N 25°46' W 080°08'0 0.0
2016-Dec-30 13:32N 25°46' W 080°08'0 0.0
2016-Dec-30 12:32N 25°46' W 080°08'0 0.0
2016-Dec-30 11:32N 25°46' W 080°08'0 0.0
2016-Dec-30 10:32N 25°46' W 080°08'0 0.0
2016-Dec-30 09:32N 25°46' W 080°08'0 0.0
2016-Dec-30 08:32N 25°46' W 080°08'0 0.0
2016-Dec-30 07:32N 25°46' W 080°08'0 0.0
2016-Dec-30 06:32N 25°46' W 080°08'0 0.0
2016-Dec-30 05:32N 25°46' W 080°08'0 0.0
2016-Dec-30 04:32N 25°46' W 080°08'0 0.0
2016-Dec-30 03:32N 25°46' W 080°08'0 0.0
2016-Dec-30 02:32N 25°46' W 080°08'0 0.0
2016-Dec-30 01:32N 25°46' W 080°08'0 0.0
2016-Dec-30 00:32N 25°46' W 080°08'0 0.0
2016-Dec-29 23:32N 25°46' W 080°08'0 0.0
2016-Dec-29 22:32N 25°46' W 080°08'0 0.0
2016-Dec-29 21:32N 25°46' W 080°08'1 0.2
2016-Dec-29 17:33N 25°46' W 080°08'1 0.6
2016-Dec-29 16:29N 25°46' W 080°08'0 0.0
2016-Dec-29 15:29N 25°46' W 080°08'0 0.0
2016-Dec-29 14:32N 25°46' W 080°08'0 0.0
2016-Dec-29 13:32N 25°46' W 080°08'0 0.0
2016-Dec-29 12:32N 25°46' W 080°08'0 0.0
2016-Dec-29 11:29N 25°46' W 080°08'0 0.0
2016-Dec-29 10:29N 25°46' W 080°08'0 0.0
2016-Dec-29 09:32N 25°46' W 080°08'0 0.0
2016-Dec-29 08:29N 25°46' W 080°08'0 0.0
2016-Dec-29 07:32N 25°46' W 080°08'0 0.0
2016-Dec-29 06:32N 25°46' W 080°08'0 0.0
2016-Dec-29 05:32N 25°46' W 080°08'0 0.0
2016-Dec-29 04:32N 25°46' W 080°08'0 0.0
2016-Dec-29 03:32N 25°46' W 080°08'0 0.0
2016-Dec-29 02:32N 25°46' W 080°08'0 0.0
2016-Dec-29 01:32N 25°46' W 080°08'0 0.0
2016-Dec-29 00:29N 25°46' W 080°08'0 0.0
2016-Dec-28 23:32N 25°46' W 080°08'0 0.0
2016-Dec-28 22:32N 25°46' W 080°08'0 0.0
2016-Dec-28 21:32N 25°46' W 080°08'2 0.6
2016-Dec-28 17:25N 25°46' W 080°11'2 2.6
2016-Dec-28 16:31N 25°46' W 080°08'0 0.0
2016-Dec-28 15:31N 25°46' W 080°08'0 0.0
2016-Dec-28 14:31N 25°46' W 080°08'0 0.0
2016-Dec-28 13:31N 25°46' W 080°08'0 0.0
2016-Dec-28 12:31N 25°46' W 080°08'0 0.0
2016-Dec-28 11:31N 25°46' W 080°08'0 0.0
2016-Dec-28 10:31N 25°46' W 080°08'0 0.0
2016-Dec-28 09:31N 25°46' W 080°08'0 0.0
2016-Dec-28 08:31N 25°46' W 080°08'0 0.0
2016-Dec-28 07:31N 25°46' W 080°08'0 0.0
2016-Dec-28 06:31N 25°46' W 080°08'0 0.0
2016-Dec-28 05:31N 25°46' W 080°08'0 0.0
2016-Dec-28 04:31N 25°46' W 080°08'0 0.0
2016-Dec-28 03:31N 25°46' W 080°08'0 0.0
2016-Dec-28 02:31N 25°46' W 080°08'0 0.0
2016-Dec-28 01:31N 25°46' W 080°08'0 0.0
2016-Dec-28 00:31N 25°46' W 080°08'0 0.0
2016-Dec-27 23:31N 25°46' W 080°08'0 0.0
2016-Dec-27 22:31N 25°46' W 080°08'0 0.0
2016-Dec-27 21:31N 25°46' W 080°08'0 0.0
2016-Dec-27 20:31N 25°46' W 080°08'0 0.0
2016-Dec-27 19:31N 25°46' W 080°08'0 0.0
2016-Dec-27 18:31N 25°46' W 080°08'0 0.0
2016-Dec-27 17:31N 25°46' W 080°08'0 0.0
2016-Dec-27 16:31N 25°46' W 080°08'0 0.0
2016-Dec-27 15:31N 25°46' W 080°08'0 0.0
2016-Dec-27 14:31N 25°46' W 080°08'0 0.0
2016-Dec-27 13:28N 25°46' W 080°08'0 0.0
2016-Dec-27 12:31N 25°46' W 080°08'0 0.0
2016-Dec-27 11:31N 25°46' W 080°08'0 0.0
2016-Dec-27 10:31N 25°46' W 080°08'0 0.0
2016-Dec-27 09:31N 25°46' W 080°08'0 0.0
2016-Dec-27 08:31N 25°46' W 080°08'0 0.0
2016-Dec-27 07:31N 25°46' W 080°08'0 0.0
2016-Dec-27 06:31N 25°46' W 080°08'0 0.0
2016-Dec-27 05:31N 25°46' W 080°08'0 0.0
2016-Dec-27 04:31N 25°46' W 080°08'0 0.0
2016-Dec-27 03:31N 25°46' W 080°08'0 0.0
2016-Dec-27 02:31N 25°46' W 080°08'0 0.0
2016-Dec-27 01:28N 25°46' W 080°08'0 0.0
2016-Dec-27 00:31N 25°46' W 080°08'0 0.0
2016-Dec-26 23:31N 25°46' W 080°08'0 0.0
2016-Dec-26 22:25N 25°46' W 080°08'0 0.0
2016-Dec-26 21:31N 25°46' W 080°08'0 0.0
2016-Dec-26 20:31N 25°46' W 080°08'0 0.0
2016-Dec-26 19:31N 25°46' W 080°08'0 0.0
2016-Dec-26 18:31N 25°46' W 080°08'0 0.0
2016-Dec-26 17:31N 25°46' W 080°08'0 0.0
2016-Dec-26 16:31N 25°46' W 080°08'0 0.0
2016-Dec-26 15:29N 25°46' W 080°08'0 0.0
2016-Dec-26 14:32N 25°46' W 080°08'  

Dump ship's entire track history